Current Weather

Jasper County

Rensselaer, Indiana (KRZL)

Report from: Friday, June 9, 2023 7:35 AM EDT
Current time: Friday, June 9, 2023 8:24 AM EDT

Nearby weather
Weather history
Weather forecast

Temperature11.0°C (51.8°F)
Dew point5.0°C (41.0°F)
Winds 3 kts (1.5 m/s, 3.5 mph) North-Northwest (330°)
Visibility10 mi. (16.1 km)
Clouds Sky clear
Altimeter29.95 in.Hg (1014 mB)
Relative humidity66 %
Density altitude-382 ft. (-117 m)
Remarks Fully automated report
Automated weather observing station with precipitation discriminator
Flight conditions Visual Meteorological Conditions
Raw dataKRZL 091135Z AUTO 33003KT 10SM CLR 11/05 A2995 RMK AO2
An unhandled exception has occurred. See browser dev tools for details. Reload 🗙